createdAt,value
2022-09-26T00:01:49.421Z,7.68
2022-09-26T00:04:23.358Z,7.93
2022-09-26T00:06:53.550Z,7.95
2022-09-26T00:09:23.695Z,7.60
2022-09-26T00:11:52.750Z,7.50
2022-09-26T00:14:29.275Z,6.57
2022-09-26T00:16:58.225Z,7.70
2022-09-26T00:19:26.508Z,7.10
2022-09-26T00:21:54.637Z,7.00
2022-09-26T00:24:22.719Z,7.43
2022-09-26T00:26:50.951Z,7.32
2022-09-26T00:29:19.182Z,6.40
2022-09-26T00:31:49.150Z,7.13
2022-09-26T00:34:19.757Z,7.53
2022-09-26T00:36:49.795Z,7.30
2022-09-26T00:39:18.725Z,8.07
2022-09-26T00:41:46.894Z,7.65
2022-09-26T00:44:49.453Z,8.52
2022-09-26T00:47:38.387Z,8.38
2022-09-26T00:50:16.222Z,7.97
2022-09-26T00:52:50.428Z,8.05
2022-09-26T00:55:24.797Z,8.80
2022-09-26T00:57:59.116Z,8.70
2022-09-26T01:00:27.660Z,8.82
2022-09-26T01:02:58.321Z,8.32
2022-09-26T01:05:27.260Z,9.38
2022-09-26T01:07:58.031Z,9.50
2022-09-26T01:10:28.390Z,9.48
2022-09-26T01:12:58.028Z,10.43
2022-09-26T01:15:26.551Z,9.50
2022-09-26T01:17:56.914Z,9.00
2022-09-26T01:20:45.061Z,9.85
2022-09-26T01:23:51.969Z,9.10
2022-09-26T01:26:52.329Z,9.45
2022-09-26T01:29:59.020Z,8.68
2022-09-26T01:33:12.164Z,9.00
2022-09-26T01:35:59.177Z,8.63
2022-09-26T01:38:44.477Z,9.02
2022-09-26T01:41:37.728Z,8.25
2022-09-26T01:44:23.919Z,9.00
2022-09-26T01:46:59.798Z,8.55
2022-09-26T01:49:35.330Z,7.75
2022-09-26T01:52:11.923Z,8.60
2022-09-26T01:54:47.605Z,8.18
2022-09-26T01:57:25.273Z,8.07
2022-09-26T02:00:01.019Z,8.90
2022-09-26T02:02:36.972Z,8.48
2022-09-26T02:05:14.903Z,8.23
2022-09-26T02:07:50.254Z,8.50
2022-09-26T02:10:26.531Z,8.13
2022-09-26T02:13:04.101Z,8.60
2022-09-26T02:15:37.952Z,8.32
2022-09-26T02:18:16.162Z,8.07
2022-09-26T02:20:55.676Z,8.65
2022-09-26T02:23:23.859Z,8.10
2022-09-26T02:25:54.994Z,7.70
2022-09-26T02:28:23.304Z,7.53
2022-09-26T02:30:54.685Z,8.27
2022-09-26T02:33:25.300Z,8.82
2022-09-26T02:35:57.477Z,8.63
2022-09-26T02:38:32.325Z,8.52
2022-09-26T02:41:23.609Z,8.20
2022-09-26T02:44:13.521Z,7.95
2022-09-26T02:47:21.589Z,7.68
2022-09-26T02:50:15.346Z,8.77
2022-09-26T02:53:06.158Z,7.72
2022-09-26T02:55:55.556Z,7.93
2022-09-26T02:58:38.850Z,7.10
2022-09-26T03:01:17.930Z,7.00
2022-09-26T03:03:54.371Z,7.00
2022-09-26T03:06:31.225Z,7.00
2022-09-26T03:09:02.266Z,6.63
2022-09-26T03:11:32.508Z,7.35
2022-09-26T03:14:01.703Z,6.15
2022-09-26T03:16:41.989Z,7.07
2022-09-26T03:19:17.729Z,6.65
2022-09-26T03:21:47.558Z,6.30
2022-09-26T03:24:15.816Z,7.18
2022-09-26T03:26:45.043Z,6.40
2022-09-26T03:29:13.320Z,6.60
2022-09-26T03:31:42.250Z,6.15
2022-09-26T03:34:11.387Z,6.40
2022-09-26T03:36:40.730Z,6.10
2022-09-26T03:39:12.465Z,6.40
2022-09-26T03:42:01.995Z,6.13
2022-09-26T03:44:31.785Z,5.70
2022-09-26T03:47:05.652Z,5.68
2022-09-26T03:49:39.866Z,5.65
2022-09-26T03:52:12.082Z,6.03
2022-09-26T03:54:42.204Z,5.80
2022-09-26T03:57:12.744Z,6.28
2022-09-26T03:59:46.881Z,6.40
2022-09-26T04:02:16.571Z,6.35
2022-09-26T04:04:48.190Z,5.65
2022-09-26T04:07:17.293Z,5.60
2022-09-26T04:09:46.738Z,6.28
2022-09-26T04:12:15.131Z,6.78
2022-09-26T04:14:48.093Z,7.50
2022-09-26T04:17:18.798Z,5.72
2022-09-26T04:19:48.614Z,6.78
2022-09-26T04:22:16.875Z,6.47
2022-09-26T04:24:47.179Z,6.57
2022-09-26T04:27:16.941Z,6.28
2022-09-26T04:29:47.448Z,7.35
2022-09-26T04:32:51.030Z,6.18
2022-09-26T04:35:37.178Z,6.85
2022-09-26T04:38:06.907Z,6.38
2022-09-26T04:40:39.537Z,6.03
2022-09-26T04:43:12.202Z,6.82
2022-09-26T04:45:43.485Z,7.63
2022-09-26T04:48:12.715Z,7.32
2022-09-26T04:51:18.122Z,6.32
2022-09-26T04:53:47.637Z,6.05
2022-09-26T04:56:29.711Z,6.70
2022-09-26T04:59:00.090Z,7.10
2022-09-26T05:01:35.567Z,6.57
2022-09-26T05:04:09.789Z,6.80
2022-09-26T05:06:39.160Z,7.07
2022-09-26T05:09:10.221Z,6.93
2022-09-26T05:11:52.612Z,7.85
2022-09-26T05:14:20.745Z,7.47
2022-09-26T05:16:50.239Z,7.95
2022-09-26T05:19:21.246Z,7.70
2022-09-26T05:22:08.106Z,8.10
2022-09-26T05:24:59.221Z,7.63
2022-09-26T05:27:28.762Z,7.63
2022-09-26T05:29:56.891Z,7.43
2022-09-26T05:32:27.345Z,7.15
2022-09-26T05:34:56.120Z,7.72
2022-09-26T05:37:25.485Z,7.75
2022-09-26T05:40:12.285Z,7.20
2022-09-26T05:42:47.287Z,7.53
2022-09-26T05:45:15.736Z,7.63
2022-09-26T05:47:45.059Z,7.03
2022-09-26T05:50:13.242Z,7.93
2022-09-26T05:52:41.776Z,8.18
2022-09-26T05:55:17.954Z,7.70
2022-09-26T05:58:02.608Z,8.10
2022-09-26T06:00:51.579Z,7.65
2022-09-26T06:03:19.979Z,7.78
2022-09-26T06:06:11.492Z,9.23
2022-09-26T06:08:41.008Z,9.30
2022-09-26T06:11:30.914Z,8.53
2022-09-26T06:14:01.178Z,9.00
2022-09-26T06:16:30.431Z,8.77
2022-09-26T06:19:02.537Z,9.02
2022-09-26T06:21:30.823Z,8.98
2022-09-26T06:24:06.136Z,9.50
2022-09-26T06:26:34.379Z,9.52
2022-09-26T06:29:05.374Z,9.73
2022-09-26T06:31:36.435Z,9.98
2022-09-26T06:34:12.033Z,10.20
2022-09-26T06:37:03.074Z,9.32
2022-09-26T06:39:35.748Z,9.80
2022-09-26T06:42:07.311Z,11.27
2022-09-26T06:44:57.071Z,10.70
2022-09-26T06:47:25.346Z,10.68
2022-09-26T06:50:09.118Z,9.70
2022-09-26T06:52:40.324Z,9.88
2022-09-26T06:55:10.171Z,11.27
2022-09-26T06:57:40.648Z,11.77
2022-09-26T07:00:13.674Z,11.40
2022-09-26T07:03:01.256Z,11.88
2022-09-26T07:05:47.851Z,11.70
2022-09-26T07:08:16.922Z,11.45
2022-09-26T07:10:45.217Z,13.20
2022-09-26T07:13:19.518Z,12.68
2022-09-26T07:15:50.740Z,12.15
2022-09-26T07:18:39.631Z,13.32
2022-09-26T07:21:21.029Z,12.00
2022-09-26T07:24:03.057Z,11.30
2022-09-26T07:26:31.371Z,11.77
2022-09-26T07:28:59.633Z,12.63
2022-09-26T07:31:30.990Z,11.55
2022-09-26T07:34:19.454Z,11.93
2022-09-26T07:36:48.069Z,11.40
2022-09-26T07:39:16.811Z,12.40
2022-09-26T07:41:46.707Z,11.25
2022-09-26T07:45:17.080Z,10.60
2022-09-26T07:47:22.788Z,11.43
2022-09-26T07:50:08.989Z,10.32
2022-09-26T07:52:57.069Z,11.60
2022-09-26T07:55:28.865Z,11.20
2022-09-26T07:58:27.869Z,11.25
2022-09-26T08:01:25.957Z,10.93
2022-09-26T08:04:17.054Z,9.82
2022-09-26T08:06:45.464Z,9.65
2022-09-26T08:09:14.903Z,9.82
2022-09-26T08:12:02.330Z,10.60
2022-09-26T08:14:50.025Z,9.23
2022-09-26T08:17:36.960Z,8.90
2022-09-26T08:20:08.292Z,9.02
2022-09-26T08:22:36.571Z,7.28
2022-09-26T08:25:06.860Z,7.95
2022-09-26T08:28:13.861Z,8.05
2022-09-26T08:30:44.911Z,8.50
2022-09-26T08:33:13.945Z,7.65
2022-09-26T08:35:43.448Z,6.47
2022-09-26T08:38:36.385Z,6.57
2022-09-26T08:41:46.031Z,5.10
2022-09-26T08:45:02.311Z,6.68
2022-09-26T08:47:50.247Z,6.40
2022-09-26T08:50:50.021Z,8.00
2022-09-26T08:53:23.180Z,5.60
2022-09-26T08:55:57.468Z,5.75
2022-09-26T08:58:32.026Z,6.00
2022-09-26T09:01:10.262Z,5.75
2022-09-26T09:04:04.607Z,5.57
2022-09-26T09:06:35.942Z,5.10
2022-09-26T09:09:04.842Z,4.55
2022-09-26T09:12:11.425Z,4.32
2022-09-26T09:15:24.063Z,4.82
2022-09-26T09:18:28.038Z,4.00
2022-09-26T09:21:41.661Z,3.67
2022-09-26T09:24:51.657Z,3.42
2022-09-26T09:27:53.910Z,3.33
2022-09-26T09:30:26.597Z,3.10
2022-09-26T09:33:41.364Z,3.00
2022-09-26T09:36:33.014Z,2.95
2022-09-26T09:39:36.863Z,3.25
2022-09-26T09:42:24.091Z,2.97
2022-09-26T09:45:00.330Z,2.67
2022-09-26T09:47:30.490Z,2.60
2022-09-26T09:50:00.677Z,3.20
2022-09-26T09:52:49.364Z,3.25
2022-09-26T09:55:38.759Z,2.72
2022-09-26T09:58:42.408Z,2.70
2022-09-26T10:01:25.545Z,2.88
2022-09-26T10:04:04.679Z,2.53
2022-09-26T10:06:44.784Z,3.38
2022-09-26T10:09:35.807Z,2.70
2022-09-26T10:12:31.075Z,3.15
2022-09-26T10:15:21.571Z,2.88
2022-09-26T10:18:24.612Z,2.60
2022-09-26T10:21:18.901Z,2.00
2022-09-26T10:23:50.332Z,2.15
2022-09-26T10:26:35.921Z,2.08
2022-09-26T10:29:21.948Z,2.63
2022-09-26T10:31:57.109Z,2.50
2022-09-26T10:34:28.887Z,1.95
2022-09-26T10:36:57.982Z,1.73
2022-09-26T10:39:49.429Z,2.10
2022-09-26T10:42:20.968Z,2.10
2022-09-26T10:44:57.949Z,2.20
2022-09-26T10:47:48.410Z,2.50
2022-09-26T10:50:48.676Z,2.80
2022-09-26T10:53:41.252Z,1.90
2022-09-26T10:56:25.135Z,2.65
2022-09-26T10:58:59.223Z,1.70
2022-09-26T11:01:32.165Z,2.22
2022-09-26T11:04:35.938Z,1.90
2022-09-26T11:07:30.276Z,2.10
2022-09-26T11:10:25.552Z,2.03
2022-09-26T11:13:17.645Z,2.17
2022-09-26T11:15:58.419Z,2.00
2022-09-26T11:18:43.581Z,1.90
2022-09-26T11:21:28.912Z,2.30
2022-09-26T11:33:14.428Z,1.38
2022-09-26T11:39:33.363Z,1.67
2022-09-26T11:42:26.102Z,2.22
2022-09-26T11:44:58.863Z,1.58
2022-09-26T11:48:11.153Z,1.85
2022-09-26T11:51:17.423Z,1.80
2022-09-26T11:54:17.721Z,1.83
2022-09-26T11:57:08.551Z,1.52
2022-09-26T12:00:12.085Z,1.55
2022-09-26T12:03:27.743Z,1.33
2022-09-26T12:06:09.946Z,2.00
2022-09-26T12:09:19.066Z,1.90
2022-09-26T12:12:05.968Z,1.50
2022-09-26T12:14:50.521Z,1.58
2022-09-26T12:17:36.985Z,1.15
2022-09-26T12:20:29.792Z,1.40
2022-09-26T12:23:10.365Z,1.60
2022-09-26T12:25:58.829Z,1.85
2022-09-26T12:28:58.507Z,1.75
2022-09-26T12:31:52.143Z,1.40
2022-09-26T12:35:02.539Z,1.17
2022-09-26T12:38:05.476Z,1.48
2022-09-26T12:40:43.434Z,1.15
2022-09-26T12:43:55.082Z,1.50
2022-09-26T12:46:48.131Z,1.30
2022-09-26T12:49:39.734Z,1.20
2022-09-26T12:52:26.586Z,1.58
2022-09-26T12:55:20.783Z,1.25
2022-09-26T12:58:16.777Z,1.25
2022-09-26T13:00:57.623Z,1.15
2022-09-26T13:04:29.009Z,0.73
2022-09-26T13:07:20.153Z,0.93
2022-09-26T13:10:27.929Z,0.90
2022-09-26T13:13:27.538Z,0.95
2022-09-26T13:16:15.039Z,0.90
2022-09-26T13:18:48.097Z,1.10
2022-09-26T13:21:26.967Z,0.90
2022-09-26T13:24:00.318Z,1.02
2022-09-26T13:26:42.642Z,0.82
2022-09-26T13:29:20.392Z,1.35
2022-09-26T13:31:55.895Z,0.90
2022-09-26T13:34:32.470Z,1.70
2022-09-26T13:37:09.859Z,1.45
2022-09-26T13:39:48.002Z,1.00
2022-09-26T13:42:26.553Z,0.60
2022-09-26T13:45:15.348Z,0.68
2022-09-26T13:47:55.420Z,0.82
2022-09-26T13:50:30.836Z,0.70
2022-09-26T13:53:11.203Z,0.70
2022-09-26T13:55:39.425Z,0.75
2022-09-26T13:58:25.530Z,0.80
2022-09-26T14:00:57.655Z,0.70
2022-09-26T14:03:43.181Z,0.85
2022-09-26T14:06:34.208Z,0.40
2022-09-26T14:09:28.399Z,0.57
2022-09-26T14:12:35.027Z,0.45
2022-09-26T14:15:28.414Z,0.60
2022-09-26T14:18:31.592Z,0.43
2022-09-26T14:21:19.128Z,0.40
2022-09-26T14:23:50.014Z,0.55
2022-09-26T14:26:22.084Z,0.88
2022-09-26T14:28:55.826Z,0.80
2022-09-26T14:32:01.628Z,1.00
2022-09-26T14:34:38.274Z,0.77
2022-09-26T14:37:30.511Z,0.60
2022-09-26T14:40:20.342Z,0.88
2022-09-26T14:43:13.461Z,0.80
2022-09-26T14:46:01.929Z,1.13
2022-09-26T14:48:38.835Z,0.80
2022-09-26T14:51:27.863Z,0.90
2022-09-26T14:54:02.349Z,1.13
2022-09-26T14:56:50.072Z,1.08
2022-09-26T14:59:41.543Z,1.48
2022-09-26T15:02:38.550Z,0.90
2022-09-26T15:05:29.649Z,1.10
2022-09-26T15:08:00.794Z,0.90
2022-09-26T15:10:43.332Z,0.70
2022-09-26T15:13:26.518Z,0.93
2022-09-26T15:16:09.703Z,1.30
2022-09-26T15:18:42.763Z,0.77
2022-09-26T15:21:27.522Z,1.25
2022-09-26T15:23:58.377Z,1.15
2022-09-26T15:26:31.740Z,1.10
2022-09-26T15:29:01.567Z,1.13
2022-09-26T15:31:39.341Z,0.93
2022-09-26T15:34:16.385Z,0.95
2022-09-26T15:36:51.298Z,1.30
2022-09-26T15:39:43.204Z,1.17
2022-09-26T15:42:48.858Z,1.20
2022-09-26T15:45:27.620Z,1.35
2022-09-26T15:47:59.230Z,1.30
2022-09-26T15:50:34.457Z,1.30
2022-09-26T15:53:12.189Z,1.13
2022-09-26T15:55:52.249Z,1.17
2022-09-26T15:58:31.505Z,1.50
2022-09-26T16:01:00.568Z,1.58
2022-09-26T16:03:47.990Z,1.30
2022-09-26T16:06:26.982Z,0.70
2022-09-26T16:09:04.976Z,0.90
2022-09-26T16:11:35.550Z,0.98
2022-09-26T16:14:05.985Z,1.42
2022-09-26T16:16:36.192Z,1.33
2022-09-26T16:19:05.186Z,1.60
2022-09-26T16:21:37.531Z,1.10
2022-09-26T16:24:34.247Z,1.30
2022-09-26T16:27:03.786Z,1.83
2022-09-26T16:29:34.917Z,2.30
2022-09-26T16:32:05.415Z,3.05
2022-09-26T16:34:34.046Z,3.30
2022-09-26T16:37:02.447Z,2.75
2022-09-26T16:39:33.196Z,2.25
2022-09-26T16:42:05.706Z,2.22
2022-09-26T16:44:38.239Z,2.00
2022-09-26T16:47:35.259Z,2.40
2022-09-26T16:50:27.937Z,4.05
2022-09-26T16:52:57.526Z,4.05
2022-09-26T16:55:29.101Z,5.82
2022-09-26T16:58:00.401Z,8.55
2022-09-26T17:00:52.364Z,5.80
2022-09-26T17:03:25.209Z,8.25
2022-09-26T17:05:56.184Z,7.30
2022-09-26T17:08:25.382Z,7.32
2022-09-26T17:10:58.158Z,10.50
2022-09-26T17:13:32.867Z,8.18
2022-09-26T17:16:03.626Z,11.57
2022-09-26T17:18:33.797Z,10.18
2022-09-26T17:21:03.036Z,7.07
2022-09-26T17:23:40.620Z,8.50
2022-09-26T17:26:19.499Z,5.70
2022-09-26T17:28:50.773Z,4.85
2022-09-26T17:31:20.709Z,3.40
2022-09-26T17:33:52.656Z,2.35
2022-09-26T17:36:25.054Z,2.53
2022-09-26T17:38:54.579Z,1.98
2022-09-26T17:41:25.261Z,2.10
2022-09-26T17:43:58.737Z,2.00
2022-09-26T17:46:28.124Z,1.77
2022-09-26T17:48:56.549Z,1.90
2022-09-26T17:51:26.057Z,2.58
2022-09-26T17:53:57.397Z,2.45
2022-09-26T17:56:27.287Z,1.80
2022-09-26T17:58:56.969Z,1.80
2022-09-26T18:01:33.632Z,1.80
2022-09-26T18:04:07.486Z,1.90
2022-09-26T18:06:36.911Z,2.30
2022-09-26T18:09:10.021Z,2.10
2022-09-26T18:11:41.853Z,1.77
2022-09-26T18:14:16.186Z,2.22
2022-09-26T18:16:44.877Z,3.75
2022-09-26T18:19:13.382Z,7.38
2022-09-26T18:21:41.954Z,6.18
2022-09-26T18:24:19.938Z,4.20
2022-09-26T18:26:56.785Z,2.05
2022-09-26T18:29:31.924Z,1.27
2022-09-26T18:32:02.788Z,0.93
2022-09-26T18:34:31.606Z,1.05
2022-09-26T18:37:01.690Z,1.60
2022-09-26T18:39:31.513Z,1.77
2022-09-26T18:42:06.144Z,1.25
2022-09-26T18:44:35.378Z,1.23
2022-09-26T18:47:07.826Z,3.28
2022-09-26T18:49:38.957Z,1.10
2022-09-26T18:52:15.009Z,1.10
2022-09-26T18:54:44.971Z,2.50
2022-09-26T18:57:41.496Z,2.33
2022-09-26T19:00:11.608Z,1.20
2022-09-26T19:02:40.605Z,1.20
2022-09-26T19:05:16.357Z,0.77
2022-09-26T19:07:45.201Z,1.10
2022-09-26T19:10:17.576Z,1.10
2022-09-26T19:12:48.290Z,1.00
2022-09-26T19:15:17.812Z,1.60
2022-09-26T19:17:46.521Z,1.10
2022-09-26T19:20:15.077Z,1.05
2022-09-26T19:22:43.775Z,0.85
2022-09-26T19:25:12.227Z,1.13
2022-09-26T19:27:50.255Z,1.30
2022-09-26T19:30:22.531Z,1.25
2022-09-26T19:32:54.593Z,1.00
2022-09-26T19:35:28.262Z,0.55
2022-09-26T19:37:56.725Z,0.65
2022-09-26T19:40:26.352Z,0.82
2022-09-26T19:42:57.204Z,1.30
2022-09-26T19:45:27.243Z,1.40
2022-09-26T19:47:57.102Z,1.33
2022-09-26T19:50:27.517Z,1.10
2022-09-26T19:52:58.399Z,1.17
2022-09-26T19:55:30.058Z,1.10
2022-09-26T19:58:07.992Z,1.00
2022-09-26T20:00:41.378Z,1.42
2022-09-26T20:03:17.718Z,0.93
2022-09-26T20:05:47.738Z,0.98
2022-09-26T20:08:20.458Z,1.20
2022-09-26T20:10:49.110Z,1.23
2022-09-26T20:13:19.663Z,1.20
2022-09-26T20:15:49.123Z,1.00
2022-09-26T20:18:22.228Z,1.20
2022-09-26T20:20:55.663Z,1.00
2022-09-26T20:23:27.397Z,0.98
2022-09-26T20:25:57.143Z,1.02
2022-09-26T20:28:26.948Z,1.23
2022-09-26T20:30:58.376Z,0.65
2022-09-26T20:33:29.299Z,0.98
2022-09-26T20:36:03.662Z,0.82
2022-09-26T20:38:39.591Z,0.90
2022-09-26T20:41:17.412Z,1.27
2022-09-26T20:43:52.993Z,0.80
2022-09-26T20:46:23.021Z,1.00
2022-09-26T20:48:52.489Z,0.98
2022-09-26T20:51:30.660Z,0.90
2022-09-26T20:54:00.637Z,0.75
2022-09-26T20:56:29.799Z,0.95
2022-09-26T20:58:59.481Z,0.80
2022-09-26T21:01:29.177Z,0.90
2022-09-26T21:03:58.251Z,0.75
2022-09-26T21:06:37.125Z,0.70
2022-09-26T21:09:05.698Z,0.60
2022-09-26T21:11:34.062Z,0.85
2022-09-26T21:14:03.724Z,1.10
2022-09-26T21:16:32.600Z,0.90
2022-09-26T21:19:01.139Z,1.02
2022-09-26T21:21:31.639Z,1.10
2022-09-26T21:24:22.862Z,1.10
2022-09-26T21:26:53.520Z,1.15
2022-09-26T21:29:23.241Z,1.13
2022-09-26T21:31:58.458Z,1.10
2022-09-26T21:34:29.001Z,1.20
2022-09-26T21:37:09.584Z,1.10
2022-09-26T21:39:40.103Z,1.13
2022-09-26T21:42:09.211Z,1.10
2022-09-26T21:44:43.599Z,0.95
2022-09-26T21:47:11.980Z,1.00
2022-09-26T21:49:40.362Z,1.20
2022-09-26T21:52:14.623Z,0.70
2022-09-26T21:54:45.794Z,1.08
2022-09-26T21:57:22.132Z,1.25
2022-09-26T21:59:53.498Z,1.45
2022-09-26T22:02:21.952Z,1.23
2022-09-26T22:04:51.931Z,0.80
2022-09-26T22:07:20.479Z,1.05
2022-09-26T22:09:48.780Z,0.82
2022-09-26T22:12:17.442Z,1.17
2022-09-26T22:14:45.701Z,1.33
2022-09-26T22:17:15.419Z,0.90
2022-09-26T22:19:43.913Z,1.42
2022-09-26T22:22:12.238Z,1.00
2022-09-26T22:24:40.559Z,0.80
2022-09-26T22:27:08.881Z,1.17
2022-09-26T22:29:37.143Z,1.20
2022-09-26T22:32:06.180Z,1.45
2022-09-26T22:34:35.844Z,1.00
2022-09-26T22:37:04.200Z,0.90
2022-09-26T22:39:32.866Z,0.90
2022-09-26T22:42:01.381Z,1.30
2022-09-26T22:44:30.104Z,1.17
2022-09-26T22:46:58.481Z,1.30
2022-09-26T22:49:27.058Z,1.50
2022-09-26T22:51:56.999Z,1.38
2022-09-26T22:54:25.688Z,1.00
2022-09-26T22:56:54.320Z,1.85
2022-09-26T22:59:22.736Z,1.75
2022-09-26T23:01:51.739Z,1.25
2022-09-26T23:04:20.515Z,1.30
2022-09-26T23:06:49.090Z,1.98
2022-09-26T23:09:18.750Z,1.38
2022-09-26T23:11:47.077Z,1.88
2022-09-26T23:14:15.426Z,1.75
2022-09-26T23:16:43.719Z,1.60
2022-09-26T23:19:12.047Z,1.50
2022-09-26T23:21:40.358Z,1.70
2022-09-26T23:24:09.043Z,1.67
2022-09-26T23:26:38.680Z,1.48
2022-09-26T23:29:07.073Z,1.98
2022-09-26T23:31:35.574Z,2.08
2022-09-26T23:34:04.124Z,1.48
2022-09-26T23:36:32.400Z,1.83
2022-09-26T23:39:00.730Z,1.80
2022-09-26T23:41:29.123Z,1.52
2022-09-26T23:43:58.912Z,1.77
2022-09-26T23:46:27.291Z,1.70
2022-09-26T23:48:55.804Z,2.03
2022-09-26T23:51:24.138Z,2.38
2022-09-26T23:53:52.511Z,1.88
2022-09-26T23:56:21.160Z,1.55
2022-09-26T23:58:49.453Z,1.73
